Memphis International Airport
KMEM : now visible

Airfield :











YOU CAN JOIN US ON...

 
LOGIN :

Register | Disclaimer

   EN    FR    IT 

 









Legend :    VFR   Marginal VFR   IFR   Intensive IFR   Very Intensive IFR
Visi :
Ceiling :
>= 8 km
>= 3000ft
5 to 8 km
1000 to 3000 ft
1500m to 5 km
500 to 1000 ft
800 to 1500m
200 to 500 ft
< 800m
< 200 ft
Symbols :   Thunderstorms  Fog  Heavy snow  Heavy precipitations  Wind > 20 kt







- Airport Elevation : 341 ft
- IATA code : MEM


KMEM - Memphis International

CURRENT METAR :
  • 230854Z 21005KT 10SM FEW080 24/24 A2997 RMK AO2 SLP143 T02440239 53002

EXPIRED METARs :
  • 230754Z 20003KT 10SM FEW080 24/23 A2995 RMK AO2 SLP136 T02440233
  • 230654Z 15005KT 10SM CLR 25/23 A2994 RMK AO2 SLP134 T02500233

TAF KMEM
Valid from the 23 at 09:00 until the 24 at 12:00 UTC


230901Z 2309/2412 21005KT P6SM FEW120 BKN250
FM231000 VRB05KT P6SM VCSH FEW009 BKN015
FM231500 30007KT P6SM VCSH BKN025
FM231900 01009KT P6SM VCTS BKN035CB BKN250
FM240000 05007KT P6SM VCSH BKN035
No reported NOTAMs for that airfield.



MET'MAP, your aeronautical weather chart ! - Copyright ORBIFLY December 2007 - Disclaimer

ORBIFLY MET'MAP TEAM :

Programming & Development : Alexandra Zaïnal
Concept & Development : Baudouin d'Aumeries
Co-Development & Prog : Marc-Olivier Méhu
Technical & hardware support : Manuel Goepfert

Contact : metmap@orbifly.com




SOURCES & CREDITS :

   NOAA       Earth
Advisory